Time;durP1;ratioP1;P1;durP2;ratioP2;P2;SDS_P1;SDS_P2;PMS_P1;PMS_P2;Temp;Humidity;BMP_temperature;BMP_pressure;BME280_temperature;BME280_humidity;BME280_pressure;Samples;Min_cycle;Max_cycle;Signal;HPM_P1;HPM_P2
2022/03/03 00:02:54;;;;;;;18.00;7.95;;;-0.10;87.60;;;;;;6206099;28;20047;-82
2022/03/03 00:05:56;;;;;;;22.85;11.02;;;-0.10;87.10;;;;;;6203254;28;20133;-83
2022/03/03 00:08:59;;;;;;;23.50;9.98;;;-0.10;87.00;;;;;;6206717;28;20034;-83
2022/03/03 00:12:01;;;;;;;23.13;11.48;;;-0.20;87.00;;;;;;6206189;28;20500;-83
2022/03/03 00:15:04;;;;;;;20.70;10.30;;;-0.20;87.50;;;;;;6206273;28;20069;-83
2022/03/03 00:18:06;;;;;;;26.23;9.45;;;-0.20;88.00;;;;;;6204629;28;20046;-82
2022/03/03 00:21:08;;;;;;;21.50;10.50;;;-0.20;88.20;;;;;;6203293;28;20133;-82
2022/03/03 00:24:11;;;;;;;19.38;8.82;;;-0.20;88.30;;;;;;6205535;28;20045;-83
2022/03/03 00:27:13;;;;;;;20.23;9.45;;;-0.20;88.30;;;;;;6206935;28;20110;-84
2022/03/03 00:30:14;;;;;;;18.90;9.73;;;-0.20;87.80;;;;;;6207291;28;20126;-83
2022/03/03 00:33:16;;;;;;;19.75;10.23;;;-0.30;87.70;;;;;;6204904;28;20520;-83
2022/03/03 00:36:18;;;;;;;22.45;12.02;;;-0.30;88.10;;;;;;6204893;28;20038;-82
2022/03/03 00:39:21;;;;;;;29.17;12.65;;;-0.40;88.00;;;;;;6204002;28;20050;-82
2022/03/03 00:42:23;;;;;;;22.52;11.30;;;-0.40;88.80;;;;;;6203940;28;20051;-82
2022/03/03 00:45:25;;;;;;;26.33;11.32;;;-0.40;88.90;;;;;;6204577;28;20266;-83
2022/03/03 00:48:26;;;;;;;24.55;12.32;;;-0.40;89.10;;;;;;6204460;28;20500;-82
2022/03/03 00:51:28;;;;;;;27.77;11.32;;;-0.40;88.90;;;;;;6206140;28;20050;-83
2022/03/03 00:54:31;;;;;;;23.60;10.93;;;-0.40;88.30;;;;;;6203148;28;20173;-83
2022/03/03 00:57:33;;;;;;;21.70;9.98;;;-0.50;88.10;;;;;;6203277;28;20069;-82
2022/03/03 01:00:35;;;;;;;21.63;9.63;;;-0.50;88.10;;;;;;6201927;28;20060;-82
2022/03/03 01:03:37;;;;;;;22.33;11.02;;;-0.50;88.20;;;;;;6202799;28;20042;-82
2022/03/03 01:06:38;;;;;;;22.15;10.18;;;-0.50;88.50;;;;;;6204953;28;20046;-83
2022/03/03 01:09:42;;;;;;;18.08;10.00;;;-0.60;88.10;;;;;;6204356;28;20049;-83
2022/03/03 01:12:43;;;;;;;23.00;10.82;;;-0.60;88.10;;;;;;6204788;28;20042;-82
2022/03/03 01:15:45;;;;;;;23.80;11.30;;;-0.60;87.70;;;;;;6208637;28;20054;-82
2022/03/03 01:18:47;;;;;;;23.50;10.20;;;-0.60;88.10;;;;;;6207664;28;20054;-82
2022/03/03 01:21:49;;;;;;;21.92;9.70;;;-0.60;89.00;;;;;;6209406;28;20046;-82
2022/03/03 01:24:52;;;;;;;19.90;9.70;;;-0.60;89.00;;;;;;6206928;28;20061;-81
2022/03/03 01:27:54;;;;;;;21.60;11.05;;;-0.60;89.20;;;;;;6205184;28;20074;-82
2022/03/03 01:30:56;;;;;;;28.90;11.75;;;-0.70;89.70;;;;;;6207279;28;20065;-81
2022/03/03 01:33:57;;;;;;;20.83;10.25;;;-0.70;89.60;;;;;;6206405;28;20042;-82
2022/03/03 01:36:59;;;;;;;20.33;10.80;;;-0.70;89.20;;;;;;6204624;28;20054;-81
2022/03/03 01:40:03;;;;;;;24.85;11.50;;;-0.70;90.00;;;;;;6207028;28;20043;-82
2022/03/03 01:43:05;;;;;;;23.30;11.75;;;-0.70;89.50;;;;;;6208410;28;20042;-82
2022/03/03 01:46:07;;;;;;;22.05;10.68;;;-0.70;89.40;;;;;;6206694;28;20129;-82
2022/03/03 01:49:09;;;;;;;26.55;10.90;;;-0.70;89.50;;;;;;6207276;28;20416;-81
2022/03/03 01:52:11;;;;;;;25.15;9.70;;;-0.70;89.90;;;;;;6206901;28;20042;-81
2022/03/03 01:55:14;;;;;;;20.65;10.00;;;-0.70;89.70;;;;;;6205751;28;20100;-81
2022/03/03 01:58:17;;;;;;;23.45;10.38;;;-0.80;90.10;;;;;;6206128;28;20074;-82
2022/03/03 02:01:19;;;;;;;23.88;10.13;;;-0.80;90.10;;;;;;6206159;28;20074;-82
2022/03/03 02:04:21;;;;;;;21.48;11.70;;;-0.80;90.00;;;;;;6205566;28;20089;-81
2022/03/03 02:07:23;;;;;;;21.95;11.10;;;-0.80;90.10;;;;;;6206096;28;20124;-83
2022/03/03 02:10:26;;;;;;;24.88;11.32;;;-0.80;90.10;;;;;;6277592;22;20050;-81
2022/03/03 02:13:28;;;;;;;23.48;11.25;;;-0.90;90.30;;;;;;6263937;28;20049;-81
2022/03/03 02:16:30;;;;;;;24.52;10.57;;;-0.90;90.00;;;;;;6264062;28;20095;-81
2022/03/03 02:19:31;;;;;;;23.67;13.13;;;-0.90;89.90;;;;;;6265055;28;20076;-81
2022/03/03 02:22:36;;;;;;;18.85;9.68;;;-1.00;89.80;;;;;;6264394;28;20076;-81
2022/03/03 02:25:38;;;;;;;24.25;9.48;;;-1.00;90.00;;;;;;6263761;28;20049;-81
2022/03/03 02:28:40;;;;;;;24.77;10.90;;;-1.00;89.90;;;;;;6264034;28;20041;-80
2022/03/03 02:31:44;;;;;;;28.23;11.07;;;-1.00;89.80;;;;;;6265241;28;20132;-80
2022/03/03 02:34:48;;;;;;;21.13;9.77;;;-1.00;89.60;;;;;;6263930;28;20470;-79
2022/03/03 02:37:51;;;;;;;20.33;10.43;;;-1.00;89.70;;;;;;6264085;28;20049;-79
2022/03/03 02:40:53;;;;;;;22.10;10.75;;;-1.00;90.00;;;;;;6263706;28;20465;-80
2022/03/03 02:43:55;;;;;;;26.13;11.45;;;-1.00;89.90;;;;;;6263197;28;20049;-80
2022/03/03 02:46:57;;;;;;;22.15;10.20;;;-1.00;89.60;;;;;;6264050;28;20057;-80
2022/03/03 02:49:59;;;;;;;19.55;9.82;;;-1.00;89.10;;;;;;6265339;28;20109;-80
2022/03/03 02:53:02;;;;;;;26.70;11.77;;;-1.10;89.10;;;;;;6263956;28;20048;-80
2022/03/03 02:56:06;;;;;;;20.08;10.00;;;-1.10;89.20;;;;;;6265410;28;20388;-80
2022/03/03 02:59:07;;;;;;;31.63;11.88;;;-1.20;89.70;;;;;;6265144;28;20132;-80
2022/03/03 03:02:09;;;;;;;25.73;9.68;;;-1.20;89.60;;;;;;6265128;28;20052;-80
2022/03/03 03:05:11;;;;;;;17.63;8.55;;;-1.20;89.80;;;;;;6263679;28;20423;-80
2022/03/03 03:08:15;;;;;;;30.08;9.52;;;-1.20;89.40;;;;;;6264303;28;20061;-80
2022/03/03 03:11:17;;;;;;;25.48;10.90;;;-1.20;89.60;;;;;;6265128;28;20050;-80
2022/03/03 03:14:18;;;;;;;20.42;9.88;;;-1.20;89.30;;;;;;6263711;28;20105;-81
2022/03/03 03:17:20;;;;;;;26.17;10.15;;;-1.30;89.10;;;;;;6265336;28;20049;-79
2022/03/03 03:20:22;;;;;;;21.58;10.40;;;-1.30;89.30;;;;;;6265299;28;20048;-79
2022/03/03 03:23:26;;;;;;;22.63;10.32;;;-1.30;89.20;;;;;;6264704;28;20045;-78
2022/03/03 03:26:27;;;;;;;19.98;9.25;;;-1.30;89.80;;;;;;6259153;28;20096;-79
2022/03/03 03:29:29;;;;;;;24.52;9.18;;;-1.30;89.90;;;;;;6260514;28;20417;-79
2022/03/03 03:32:31;;;;;;;21.10;9.77;;;-1.30;89.30;;;;;;6261606;28;20061;-79
2022/03/03 03:35:33;;;;;;;23.27;11.07;;;-1.40;89.40;;;;;;6261370;28;20041;-80
2022/03/03 03:38:36;;;;;;;20.70;10.15;;;-1.40;89.60;;;;;;6260199;28;20134;-79
2022/03/03 03:41:38;;;;;;;19.20;10.43;;;-1.40;89.70;;;;;;6260485;28;20049;-80
2022/03/03 03:44:39;;;;;;;20.60;10.40;;;-1.40;89.30;;;;;;6260058;28;20060;-79
2022/03/03 03:47:42;;;;;;;23.70;9.68;;;-1.50;89.20;;;;;;6259299;28;20107;-79
2022/03/03 03:50:44;;;;;;;29.05;9.95;;;-1.50;89.00;;;;;;6267661;28;20547;-80
2022/03/03 03:53:47;;;;;;;22.13;9.05;;;-1.50;88.80;;;;;;6265045;28;20106;-80
2022/03/03 03:56:48;;;;;;;27.55;9.65;;;-1.50;89.40;;;;;;6269973;28;20084;-79
2022/03/03 03:59:50;;;;;;;20.10;11.18;;;-1.60;89.00;;;;;;6269327;28;20054;-80
2022/03/03 04:02:52;;;;;;;18.38;9.57;;;-1.60;89.00;;;;;;6270196;28;20045;-80
2022/03/03 04:05:54;;;;;;;28.80;10.90;;;-1.60;89.10;;;;;;6267068;28;20046;-80
2022/03/03 04:08:57;;;;;;;20.30;11.77;;;-1.60;89.80;;;;;;6268131;28;20125;-81
2022/03/03 04:11:59;;;;;;;24.65;11.45;;;-1.60;90.00;;;;;;6265296;28;20091;-80
2022/03/03 04:15:00;;;;;;;22.13;10.52;;;-1.60;90.00;;;;;;6262234;28;20045;-80
2022/03/03 04:18:02;;;;;;;26.20;11.48;;;-1.60;90.20;;;;;;6262753;28;20141;-80
2022/03/03 04:21:05;;;;;;;21.42;9.93;;;-1.60;90.20;;;;;;6262431;28;20521;-80
2022/03/03 04:24:10;;;;;;;23.67;9.98;;;-1.60;90.30;;;;;;6262213;28;20052;-80
2022/03/03 04:27:12;;;;;;;28.83;11.65;;;-1.60;90.30;;;;;;6262193;28;20499;-80
2022/03/03 04:30:13;;;;;;;20.85;10.50;;;-1.60;90.30;;;;;;6261846;28;20215;-80
2022/03/03 04:33:15;;;;;;;22.77;9.40;;;-1.60;90.40;;;;;;6262052;28;20105;-79
2022/03/03 04:36:17;;;;;;;24.60;12.40;;;-1.60;90.50;;;;;;6263121;28;20109;-80
2022/03/03 04:39:20;;;;;;;23.58;10.00;;;-1.70;90.50;;;;;;6269028;28;20051;-80
2022/03/03 04:42:22;;;;;;;20.33;11.13;;;-1.70;90.60;;;;;;6263660;28;20113;-79
2022/03/03 04:45:25;;;;;;;29.45;10.65;;;-1.70;90.40;;;;;;6259126;28;20057;-79
2022/03/03 04:48:29;;;;;;;23.13;10.82;;;-1.80;90.20;;;;;;6258641;28;20104;-80
2022/03/03 04:51:36;;;;;;;18.17;10.40;;;-1.80;90.10;;;;;;6248287;28;20061;-80
2022/03/03 04:54:39;;;;;;;21.15;9.85;;;-1.80;90.10;;;;;;6258220;28;20042;-79
2022/03/03 04:57:41;;;;;;;22.60;9.32;;;-1.80;90.00;;;;;;6257425;28;20049;-80
2022/03/03 05:00:43;;;;;;;24.58;10.07;;;-1.90;89.90;;;;;;6258947;28;20579;-80
2022/03/03 05:03:45;;;;;;;28.88;12.35;;;-1.90;89.80;;;;;;6258662;28;20045;-79
2022/03/03 05:06:48;;;;;;;32.60;13.90;;;-1.90;90.00;;;;;;6259756;28;20132;-80
2022/03/03 05:09:51;;;;;;;37.75;13.63;;;-1.90;90.00;;;;;;6259221;28;20129;-79
2022/03/03 05:12:53;;;;;;;24.52;11.77;;;-1.90;90.00;;;;;;6259751;28;20144;-80
2022/03/03 05:15:54;;;;;;;25.02;10.68;;;-1.90;90.00;;;;;;6261347;28;20049;-80
2022/03/03 05:18:56;;;;;;;19.15;10.60;;;-1.90;89.80;;;;;;6262788;28;20080;-80
2022/03/03 05:21:58;;;;;;;30.73;12.48;;;-1.90;89.90;;;;;;6264530;28;20113;-80
2022/03/03 05:25:01;;;;;;;26.08;11.35;;;-1.90;90.00;;;;;;6263835;28;20076;-79
2022/03/03 05:28:03;;;;;;;24.00;10.70;;;-2.00;90.20;;;;;;6264506;28;20057;-79
2022/03/03 05:31:05;;;;;;;21.13;9.95;;;-2.00;90.60;;;;;;6265270;28;20113;-78
2022/03/03 05:34:08;;;;;;;21.08;10.98;;;-2.00;90.50;;;;;;6262232;28;20097;-80
2022/03/03 05:37:10;;;;;;;23.70;10.20;;;-2.00;90.60;;;;;;6257074;28;20076;-79
2022/03/03 05:40:13;;;;;;;25.33;10.60;;;-2.00;90.50;;;;;;6255525;28;20042;-79
2022/03/03 05:43:15;;;;;;;21.90;11.70;;;-2.10;90.50;;;;;;6255009;28;20049;-78
2022/03/03 05:46:17;;;;;;;27.90;13.35;;;-2.10;90.50;;;;;;6253356;28;20172;-78
2022/03/03 05:49:19;;;;;;;21.27;10.80;;;-2.10;90.30;;;;;;6266718;28;20068;-79
2022/03/03 05:52:21;;;;;;;23.25;9.88;;;-2.10;90.50;;;;;;6278827;28;20041;-78
2022/03/03 05:55:24;;;;;;;26.05;11.68;;;-2.10;90.40;;;;;;6252635;28;20133;-79
2022/03/03 05:58:30;;;;;;;26.55;11.43;;;-2.10;90.30;;;;;;6221903;28;20465;-79
2022/03/03 06:01:32;;;;;;;18.90;10.20;;;-2.10;90.40;;;;;;6260825;28;20050;-81
2022/03/03 06:04:38;;;;;;;26.35;11.15;;;-2.10;90.20;;;;;;6260541;28;20172;-78
2022/03/03 06:07:45;;;;;;;32.30;12.48;;;-2.10;90.20;;;;;;6263328;28;20054;-80
2022/03/03 06:10:57;;;;;;;21.38;9.50;;;-2.10;90.20;;;;;;6259006;28;20191;-80
2022/03/03 06:14:06;;;;;;;23.75;11.43;;;-2.10;90.00;;;;;;6258938;28;20049;-79
2022/03/03 06:17:09;;;;;;;22.67;9.73;;;-2.10;90.00;;;;;;6262562;28;20064;-81
2022/03/03 06:20:12;;;;;;;18.13;10.02;;;-2.00;90.00;;;;;;6290781;28;20052;-78
2022/03/03 06:23:14;;;;;;;33.67;12.60;;;-2.00;90.10;;;;;;6294448;28;20053;-79
2022/03/03 06:26:19;;;;;;;24.67;11.18;;;-2.00;90.00;;;;;;6289697;28;20117;-81
2022/03/03 06:29:21;;;;;;;22.88;12.20;;;-1.90;90.20;;;;;;6286108;28;20056;-81
2022/03/03 06:32:23;;;;;;;31.95;11.00;;;-1.90;90.20;;;;;;6288017;28;20041;-79
2022/03/03 06:35:25;;;;;;;24.50;11.55;;;-1.80;90.30;;;;;;6284765;28;20095;-81
2022/03/03 06:38:27;;;;;;;28.02;11.18;;;-1.80;90.10;;;;;;6279597;28;20118;-80
2022/03/03 06:41:30;;;;;;;33.40;13.95;;;-1.70;90.20;;;;;;6280554;28;20098;-82
2022/03/03 06:44:32;;;;;;;32.75;13.73;;;-1.60;90.30;;;;;;6279943;28;20045;-81
2022/03/03 06:47:34;;;;;;;26.30;11.77;;;-1.70;90.30;;;;;;6279866;28;20055;-80
2022/03/03 06:50:37;;;;;;;37.80;12.82;;;-1.70;90.50;;;;;;6281231;28;20045;-80
2022/03/03 06:53:41;;;;;;;42.08;14.73;;;-1.60;90.70;;;;;;6280603;28;20049;-81
2022/03/03 06:56:48;;;;;;;29.75;13.05;;;-1.50;90.70;;;;;;6280182;28;20041;-79
2022/03/03 06:59:51;;;;;;;26.67;10.60;;;-1.40;90.60;;;;;;6284527;28;20134;-78
2022/03/03 07:02:54;;;;;;;29.02;12.50;;;-1.20;90.90;;;;;;6286003;28;20061;-79
2022/03/03 07:05:55;;;;;;;31.67;11.77;;;-0.90;91.10;;;;;;6284212;28;20128;-79
2022/03/03 07:08:58;;;;;;;23.25;10.40;;;-0.60;90.90;;;;;;6282818;28;20554;-79
2022/03/03 07:12:01;;;;;;;28.67;11.10;;;-0.30;90.90;;;;;;6280365;28;20064;-80
2022/03/03 07:15:03;;;;;;;28.08;11.95;;;0.00;90.70;;;;;;6280640;28;20069;-80
2022/03/03 07:18:12;;;;;;;22.65;10.57;;;0.40;90.40;;;;;;6279367;28;20063;-81
2022/03/03 07:21:25;;;;;;;23.45;10.10;;;0.80;90.00;;;;;;6283095;28;20045;-81
2022/03/03 07:24:30;;;;;;;22.77;11.73;;;1.20;89.30;;;;;;6279965;28;20045;-81
2022/03/03 07:27:34;;;;;;;29.27;10.55;;;1.60;87.70;;;;;;6279502;28;20051;-80
2022/03/03 07:30:41;;;;;;;23.00;11.18;;;1.80;87.10;;;;;;6280923;28;20582;-81
2022/03/03 07:33:49;;;;;;;27.90;11.07;;;2.00;88.30;;;;;;6280769;28;20048;-82
2022/03/03 07:36:54;;;;;;;23.30;10.18;;;2.40;87.40;;;;;;6284123;28;20056;-82
2022/03/03 07:40:02;;;;;;;38.67;10.50;;;2.90;86.70;;;;;;6283256;28;20483;-82
2022/03/03 07:43:06;;;;;;;27.67;12.38;;;3.50;85.20;;;;;;6283745;28;20056;-82
2022/03/03 07:46:08;;;;;;;18.23;10.65;;;3.90;82.90;;;;;;6284427;28;20110;-80
2022/03/03 07:49:14;;;;;;;21.67;10.70;;;4.10;81.40;;;;;;6287778;28;20191;-82
2022/03/03 07:52:15;;;;;;;26.55;10.70;;;4.50;81.10;;;;;;6284214;28;20055;-81
2022/03/03 07:55:18;;;;;;;19.05;10.27;;;4.80;78.90;;;;;;6283806;28;20041;-83
2022/03/03 07:58:27;;;;;;;22.05;10.43;;;5.20;77.40;;;;;;6282923;28;20051;-80
2022/03/03 08:01:31;;;;;;;21.40;9.75;;;5.40;76.70;;;;;;6275208;28;20049;-82
2022/03/03 08:04:35;;;;;;;18.25;11.30;;;5.80;75.60;;;;;;6283193;28;20490;-82
2022/03/03 08:07:42;;;;;;;23.95;11.20;;;6.30;74.30;;;;;;6285074;28;20056;-82
2022/03/03 08:10:45;;;;;;;22.45;10.02;;;6.70;72.50;;;;;;6273426;23;20135;-81
2022/03/03 08:13:51;;;;;;;24.38;9.65;;;7.20;70.60;;;;;;6230305;28;20054;-83
2022/03/03 08:16:52;;;;;;;22.55;10.77;;;8.00;68.40;;;;;;6230853;28;20093;-81
2022/03/03 08:19:56;;;;;;;22.00;10.85;;;8.70;66.10;;;;;;6254153;28;20567;-83
2022/03/03 08:23:00;;;;;;;20.08;10.15;;;9.50;64.00;;;;;;6253197;28;20064;-81
2022/03/03 08:26:03;;;;;;;19.52;10.02;;;10.10;61.60;;;;;;6247956;28;20045;-81
2022/03/03 08:29:07;;;;;;;19.30;10.20;;;10.30;60.40;;;;;;6247753;28;20046;-81
2022/03/03 08:32:16;;;;;;;27.80;12.02;;;10.30;59.60;;;;;;6249182;28;20053;-84
2022/03/03 08:35:20;;;;;;;15.93;9.35;;;10.50;59.40;;;;;;6248953;28;20108;-82
2022/03/03 08:38:34;;;;;;;18.48;9.48;;;10.90;58.00;;;;;;6248881;28;20051;-83
2022/03/03 08:41:39;;;;;;;20.42;9.80;;;12.00;55.80;;;;;;6221632;28;20042;-81
2022/03/03 08:44:44;;;;;;;20.08;9.77;;;13.30;52.10;;;;;;6259839;28;20038;-81
2022/03/03 08:47:54;;;;;;;21.63;10.85;;;14.10;48.70;;;;;;6273168;28;20034;-83
2022/03/03 08:50:56;;;;;;;18.27;10.23;;;14.80;46.60;;;;;;6274817;28;20068;-81
2022/03/03 08:53:58;;;;;;;17.98;10.90;;;15.40;44.40;;;;;;6264040;28;20124;-86
2022/03/03 08:57:01;;;;;;;19.15;9.95;;;15.70;43.10;;;;;;6254077;28;20056;-86
2022/03/03 09:00:05;;;;;;;23.27;10.65;;;16.20;42.20;;;;;;6253466;28;20048;-85
2022/03/03 09:03:07;;;;;;;18.67;9.45;;;16.80;40.70;;;;;;6250305;28;20499;-83
2022/03/03 09:06:08;;;;;;;22.17;10.65;;;17.40;39.70;;;;;;6249393;28;20148;-83
2022/03/03 09:09:12;;;;;;;18.48;9.77;;;17.80;38.40;;;;;;6249704;28;20057;-79
2022/03/03 09:12:14;;;;;;;19.85;11.50;;;18.10;37.50;;;;;;6249262;28;20515;-82
2022/03/03 09:15:18;;;;;;;22.85;11.35;;;18.40;37.30;;;;;;6250379;28;20434;-82
2022/03/03 09:18:19;;;;;;;20.88;11.30;;;18.50;36.60;;;;;;6251843;28;20084;-84
2022/03/03 09:21:21;;;;;;;23.17;11.38;;;18.60;36.00;;;;;;6249777;28;20462;-83
2022/03/03 09:24:23;;;;;;;25.20;11.52;;;18.80;35.70;;;;;;6249392;28;20529;-83
2022/03/03 09:27:26;;;;;;;25.20;12.23;;;18.90;35.20;;;;;;6250125;28;20049;-83
2022/03/03 09:30:29;;;;;;;23.17;11.65;;;18.90;35.00;;;;;;6249724;28;20410;-81
2022/03/03 09:33:31;;;;;;;24.10;11.20;;;18.90;35.10;;;;;;6255461;28;20097;-82
2022/03/03 09:36:32;;;;;;;27.13;15.45;;;18.70;34.90;;;;;;6260530;28;20124;-84
2022/03/03 09:39:34;;;;;;;20.88;11.10;;;18.40;35.90;;;;;;6260794;28;20132;-83
2022/03/03 09:42:36;;;;;;;23.52;12.18;;;17.60;36.10;;;;;;6258813;28;20055;-81
2022/03/03 09:45:39;;;;;;;24.15;11.15;;;16.80;37.00;;;;;;6259835;28;20044;-80
2022/03/03 09:48:41;;;;;;;19.75;12.38;;;16.00;38.40;;;;;;6260306;28;20042;-83
2022/03/03 09:51:43;;;;;;;20.92;12.00;;;15.50;39.80;;;;;;6253062;28;20491;-79
2022/03/03 09:54:48;;;;;;;61.75;30.80;;;15.10;40.70;;;;;;6234615;28;20196;-78
2022/03/03 09:57:52;;;;;;;27.67;16.27;;;15.00;41.40;;;;;;6248161;28;20045;-81
2022/03/03 10:00:57;;;;;;;25.10;13.88;;;15.00;41.80;;;;;;6261978;28;20081;-81
2022/03/03 10:04:13;;;;;;;20.17;13.35;;;15.00;42.10;;;;;;6262955;28;20120;-80
2022/03/03 10:07:15;;;;;;;22.63;12.73;;;15.00;42.30;;;;;;6255677;28;20136;-80
2022/03/03 10:10:17;;;;;;;22.42;12.95;;;15.20;42.20;;;;;;6253957;28;20502;-78
2022/03/03 10:13:20;;;;;;;23.73;13.43;;;15.20;41.80;;;;;;6253368;28;20054;-79
2022/03/03 10:16:25;;;;;;;24.52;13.57;;;15.30;41.40;;;;;;6253777;28;20048;-79
2022/03/03 10:19:27;;;;;;;22.13;12.60;;;15.00;40.50;;;;;;6252194;28;20064;-78
2022/03/03 10:22:40;;;;;;;21.15;11.68;;;14.70;41.30;;;;;;6252651;28;20051;-80
2022/03/03 10:25:44;;;;;;;21.73;12.40;;;14.60;41.70;;;;;;6251865;28;20458;-81
2022/03/03 10:28:49;;;;;;;23.02;12.18;;;14.80;42.10;;;;;;6254138;28;20099;-78
2022/03/03 10:31:54;;;;;;;20.30;12.32;;;15.10;41.70;;;;;;6254070;28;20049;-79
2022/03/03 10:35:02;;;;;;;21.42;12.32;;;15.40;41.20;;;;;;6254734;28;20057;-78
2022/03/03 10:38:04;;;;;;;24.02;12.90;;;15.60;40.60;;;;;;6253780;28;20050;-79
2022/03/03 10:41:06;;;;;;;17.48;11.48;;;15.80;40.30;;;;;;6254052;28;20050;-78
2022/03/03 10:44:10;;;;;;;21.13;12.18;;;16.00;39.30;;;;;;6253771;28;20051;-80
2022/03/03 10:47:14;;;;;;;20.13;11.93;;;16.00;39.30;;;;;;6250133;28;20132;-80
2022/03/03 10:50:16;;;;;;;21.25;12.55;;;16.00;39.30;;;;;;6254604;28;20132;-79
2022/03/03 10:53:18;;;;;;;23.35;13.32;;;16.10;39.60;;;;;;6253754;28;20048;-78
2022/03/03 10:56:20;;;;;;;26.92;12.50;;;16.40;39.50;;;;;;6253999;28;20049;-79
2022/03/03 10:59:23;;;;;;;20.70;11.20;;;16.70;39.20;;;;;;6254689;28;20041;-79
2022/03/03 11:02:28;;;;;;;21.63;12.82;;;16.90;38.50;;;;;;6252775;28;20055;-79
2022/03/03 11:05:31;;;;;;;22.42;12.55;;;17.00;38.10;;;;;;6252517;28;20048;-80
2022/03/03 11:08:33;;;;;;;20.48;11.40;;;17.20;37.80;;;;;;6254647;28;20586;-81
2022/03/03 11:11:35;;;;;;;32.75;12.18;;;17.50;37.60;;;;;;6257557;28;20053;-80
2022/03/03 11:14:39;;;;;;;17.75;10.85;;;17.70;37.10;;;;;;6254735;28;20410;-79
2022/03/03 11:17:42;;;;;;;19.73;12.27;;;18.00;36.30;;;;;;6257333;28;20079;-81
2022/03/03 11:20:44;;;;;;;17.10;11.82;;;18.10;35.90;;;;;;6254370;28;20052;-79
2022/03/03 11:23:48;;;;;;;17.67;11.27;;;18.30;36.50;;;;;;6253199;28;20499;-78
2022/03/03 11:26:51;;;;;;;21.35;12.68;;;18.20;34.90;;;;;;6253559;28;20184;-79
2022/03/03 11:30:13;;;;;;;23.20;12.18;;;18.10;35.40;;;;;;6253762;28;20511;-79
2022/03/03 11:33:26;;;;;;;17.63;11.77;;;17.80;35.50;;;;;;6251693;28;20426;-80
2022/03/03 11:36:27;;;;;;;21.55;11.00;;;17.90;36.10;;;;;;6252733;28;20052;-79
2022/03/03 11:39:45;;;;;;;17.40;12.05;;;18.20;35.80;;;;;;6254749;28;20071;-82
2022/03/03 11:42:49;;;;;;;18.52;12.75;;;18.60;36.20;;;;;;6256851;28;20049;-80
2022/03/03 11:45:52;;;;;;;20.17;10.68;;;18.90;34.40;;;;;;6257048;28;20050;-80
2022/03/03 11:49:16;;;;;;;20.52;11.88;;;19.10;34.10;;;;;;6251442;28;20049;-80
2022/03/03 11:52:21;;;;;;;19.05;11.80;;;19.10;34.00;;;;;;6253054;28;20065;-80
2022/03/03 11:55:43;;;;;;;20.70;12.18;;;19.40;33.70;;;;;;6252852;28;20053;-78
2022/03/03 11:58:45;;;;;;;21.27;12.00;;;19.60;33.30;;;;;;6253297;28;20418;-80
2022/03/03 12:01:55;;;;;;;22.42;11.90;;;19.70;32.90;;;;;;6252488;28;20135;-80
2022/03/03 12:05:50;;;;;;;22.50;11.48;;;19.80;32.90;;;;;;6252786;28;20121;-80
2022/03/03 12:08:53;;;;;;;21.23;10.85;;;20.00;32.50;;;;;;6254077;28;20037;-80
2022/03/03 12:12:08;;;;;;;18.17;11.35;;;20.30;32.10;;;;;;6253728;28;20136;-79
2022/03/03 12:15:09;;;;;;;24.95;12.40;;;20.40;31.70;;;;;;6255748;28;20053;-79
2022/03/03 12:18:15;;;;;;;20.27;10.63;;;20.50;31.50;;;;;;6251776;28;20139;-80
2022/03/03 12:21:25;;;;;;;24.50;12.15;;;20.60;31.50;;;;;;6251597;28;20529;-81
2022/03/03 12:24:31;;;;;;;17.52;11.02;;;20.80;31.80;;;;;;6252169;28;20168;-80
2022/03/03 12:27:32;;;;;;;22.85;11.32;;;20.90;30.70;;;;;;6254252;28;20045;-80
2022/03/03 12:30:43;;;;;;;17.27;10.45;;;20.90;30.40;;;;;;6252556;28;20049;-80
2022/03/03 12:33:56;;;;;;;17.30;10.27;;;21.00;30.10;;;;;;6252600;28;20049;-81
2022/03/03 12:36:57;;;;;;;19.77;10.95;;;20.90;30.20;;;;;;6252881;28;20140;-79
2022/03/03 12:40:04;;;;;;;19.05;9.95;;;20.90;30.40;;;;;;6251556;28;20052;-81
2022/03/03 12:43:12;;;;;;;17.83;11.20;;;21.00;30.00;;;;;;6250446;28;20060;-81
2022/03/03 12:46:14;;;;;;;18.15;10.48;;;21.10;29.50;;;;;;6249803;28;20499;-80
2022/03/03 12:49:17;;;;;;;18.10;10.85;;;21.20;29.60;;;;;;6246890;28;20511;-80
2022/03/03 12:52:23;;;;;;;27.10;12.23;;;21.20;29.70;;;;;;6252789;28;20533;-83
2022/03/03 12:55:31;;;;;;;22.25;11.20;;;21.20;29.70;;;;;;6257290;28;20049;-81
2022/03/03 12:58:34;;;;;;;27.88;13.55;;;21.10;29.60;;;;;;6255337;28;20128;-84
2022/03/03 13:01:37;;;;;;;24.60;13.52;;;21.10;29.50;;;;;;6250100;28;20056;-78
2022/03/03 13:04:45;;;;;;;25.25;12.82;;;21.10;29.30;;;;;;6249295;28;20045;-81
2022/03/03 13:07:47;;;;;;;;;;;21.20;29.40;;;;;;6250547;28;20045;-80
2022/03/03 13:10:51;;;;;;;21.05;12.20;;;21.10;29.40;;;;;;6249895;28;20003;-79
2022/03/03 13:13:57;;;;;;;27.30;16.17;;;21.10;29.90;;;;;;6238552;28;20058;-80
2022/03/03 13:17:08;;;;;;;31.23;16.88;;;21.10;29.60;;;;;;6226261;28;20050;-79
2022/03/03 13:20:11;;;;;;;57.63;32.22;;;21.20;29.70;;;;;;6250939;28;20052;-80
2022/03/03 13:23:15;;;;;;;43.10;21.75;;;21.30;29.60;;;;;;6252950;28;20499;-79
2022/03/03 13:26:20;;;;;;;98.35;34.75;;;21.50;29.70;;;;;;6251926;28;20111;-82
2022/03/03 13:29:25;;;;;;;76.13;29.33;;;21.30;28.60;;;;;;6260903;28;20554;-84
2022/03/03 13:32:27;;;;;;;21.77;12.38;;;20.70;28.70;;;;;;6257793;28;20046;-82
2022/03/03 13:35:40;;;;;;;19.65;12.32;;;20.10;29.60;;;;;;6249970;28;20687;-78
2022/03/03 13:38:42;;;;;;;20.02;11.88;;;19.90;29.80;;;;;;6249550;28;20045;-78
2022/03/03 13:41:45;;;;;;;19.15;11.38;;;19.80;29.90;;;;;;6265410;28;20127;-77
2022/03/03 13:44:58;;;;;;;22.13;12.02;;;19.70;30.20;;;;;;6262261;28;20041;-78
2022/03/03 13:48:05;;;;;;;22.10;12.05;;;19.90;30.80;;;;;;6257222;28;20469;-80
2022/03/03 13:51:07;;;;;;;19.17;11.18;;;20.20;30.50;;;;;;6261353;28;20053;-79
2022/03/03 13:54:09;;;;;;;20.25;11.45;;;20.40;30.10;;;;;;6274790;28;20037;-79
2022/03/03 13:57:40;;;;;;;21.08;12.65;;;20.60;29.60;;;;;;6272318;28;20049;-79
2022/03/03 14:00:43;;;;;;;20.75;13.25;;;20.50;29.50;;;;;;6270819;28;20049;-78
2022/03/03 14:03:46;;;;;;;20.05;12.10;;;20.40;30.10;;;;;;6262944;28;20059;-79
2022/03/03 14:06:48;;;;;;;23.42;13.63;;;19.80;30.00;;;;;;6250443;28;20055;-79
2022/03/03 14:09:56;;;;;;;21.83;13.10;;;19.10;30.90;;;;;;6258829;22;20040;-79
2022/03/03 14:13:04;;;;;;;24.15;14.18;;;18.50;31.60;;;;;;6225029;28;20046;-78
2022/03/03 14:16:06;;;;;;;23.40;13.23;;;18.40;32.50;;;;;;6222475;28;20410;-78
2022/03/03 14:19:07;;;;;;;20.38;12.80;;;18.60;32.10;;;;;;6242738;28;20051;-78
2022/03/03 14:22:10;;;;;;;22.67;13.35;;;18.60;32.10;;;;;;6251788;28;20165;-78
2022/03/03 14:25:12;;;;;;;23.20;12.38;;;18.70;31.90;;;;;;6252138;28;20529;-78
2022/03/03 14:28:15;;;;;;;21.52;13.57;;;18.50;31.20;;;;;;6253828;28;20048;-79
2022/03/03 14:31:18;;;;;;;21.08;13.20;;;18.10;31.20;;;;;;6254667;28;20056;-78
2022/03/03 14:34:20;;;;;;;21.58;12.75;;;17.50;30.50;;;;;;6252565;28;20124;-79
2022/03/03 14:37:21;;;;;;;21.58;12.32;;;16.90;31.10;;;;;;6254224;28;20053;-78
2022/03/03 14:40:23;;;;;;;22.83;12.55;;;16.50;31.50;;;;;;6254072;28;20046;-79
2022/03/03 14:43:27;;;;;;;26.08;14.77;;;16.20;31.70;;;;;;6252209;28;20099;-78
2022/03/03 14:46:32;;;;;;;22.73;12.50;;;15.90;32.50;;;;;;6249838;28;20076;-78
2022/03/03 14:49:34;;;;;;;20.73;12.43;;;15.60;33.40;;;;;;6248709;28;20038;-78
2022/03/03 14:52:36;;;;;;;25.73;14.07;;;15.60;33.80;;;;;;6250820;28;20540;-78
2022/03/03 14:55:37;;;;;;;23.08;13.43;;;15.90;33.70;;;;;;6250612;28;20045;-78
2022/03/03 14:58:41;;;;;;;28.40;13.35;;;16.10;33.40;;;;;;6248859;28;20052;-78
2022/03/03 15:01:43;;;;;;;28.15;14.25;;;16.20;33.80;;;;;;6250241;28;20068;-78
2022/03/03 15:04:45;;;;;;;25.35;13.90;;;16.10;33.20;;;;;;6250197;28;20465;-78
2022/03/03 15:07:47;;;;;;;20.88;13.00;;;15.90;33.40;;;;;;6245067;28;20561;-78
2022/03/03 15:10:49;;;;;;;23.98;13.15;;;15.80;33.90;;;;;;6226613;28;20117;-78
2022/03/03 15:13:52;;;;;;;22.08;12.30;;;15.80;33.60;;;;;;6227913;28;20041;-80
2022/03/03 15:16:54;;;;;;;20.08;12.77;;;15.80;33.30;;;;;;6228320;28;20042;-80
2022/03/03 15:19:56;;;;;;;24.52;13.20;;;15.70;33.40;;;;;;6252999;28;20423;-79
2022/03/03 15:22:57;;;;;;;22.85;13.57;;;15.60;34.00;;;;;;6253260;28;20060;-78
2022/03/03 15:25:59;;;;;;;22.55;13.30;;;15.50;34.40;;;;;;6251441;28;20065;-78
2022/03/03 15:29:03;;;;;;;24.48;13.18;;;15.30;34.60;;;;;;6251577;28;20052;-79
2022/03/03 15:32:07;;;;;;;23.58;13.55;;;15.10;34.70;;;;;;6251396;28;20041;-78
2022/03/03 15:38:29;;;;;;;24.15;14.05;;;15.10;35.60;;;;;;6251305;28;20037;-79
2022/03/03 15:41:31;;;;;;;24.80;12.65;;;14.90;35.80;;;;;;6246181;28;20578;-78